Time;durP1;ratioP1;P1;durP2;ratioP2;P2;SDS_P1;SDS_P2;PMS_P1;PMS_P2;Temp;Humidity;BMP_temperature;BMP_pressure;BME280_temperature;BME280_humidity;BME280_pressure;Samples;Min_cycle;Max_cycle;Signal;HPM_P1;HPM_P2
2021/12/17 00:04:56;;;;;;;57.88;31.27;;;0.30;99.90;;;;;;4924287;29;20020;-84
2021/12/17 00:07:26;;;;;;;49.97;27.58;;;0.20;99.90;;;;;;4939503;29;20029;-85
2021/12/17 00:09:54;;;;;;;80.18;39.92;;;0.30;99.90;;;;;;4924910;29;20110;-83
2021/12/17 00:12:22;;;;;;;63.22;31.77;;;0.20;99.90;;;;;;4923618;29;20048;-84
2021/12/17 00:14:50;;;;;;;52.78;28.42;;;0.30;99.90;;;;;;4923564;29;20013;-84
2021/12/17 00:17:20;;;;;;;44.22;23.50;;;0.10;99.90;;;;;;4938267;29;20033;-82
2021/12/17 00:49:37;;;;;;;29.38;14.80;;;-0.20;99.90;;;;;;4924883;29;19972;-84
2021/12/17 00:52:04;;;;;;;26.90;13.65;;;-0.20;99.90;;;;;;4922580;29;20029;-82
2021/12/17 00:54:40;;;;;;;22.55;11.20;;;-0.10;99.90;;;;;;4920640;29;20044;-80
2021/12/17 00:57:18;;;;;;;20.67;11.68;;;-0.20;99.90;;;;;;4919068;29;20028;-82
2021/12/17 00:59:47;;;;;;;29.13;12.32;;;-0.20;99.90;;;;;;4920212;29;20037;-82
2021/12/17 01:02:17;;;;;;;30.88;15.63;;;-0.20;99.90;;;;;;4920676;29;20033;-82
2021/12/17 01:04:49;;;;;;;36.83;16.77;;;-0.20;99.90;;;;;;4919356;29;20036;-81
2021/12/17 01:07:15;;;;;;;29.48;14.73;;;-0.20;99.90;;;;;;4919964;29;20092;-82
2021/12/17 01:09:43;;;;;;;28.15;14.70;;;-0.20;99.90;;;;;;4919400;29;20029;-82
2021/12/17 01:12:09;;;;;;;32.25;18.13;;;-0.20;99.90;;;;;;4920386;29;20163;-82
2021/12/17 01:14:36;;;;;;;38.05;18.58;;;-0.20;99.90;;;;;;4936535;29;20040;-83
2021/12/17 01:17:04;;;;;;;37.90;18.50;;;-0.20;99.90;;;;;;4920368;29;20100;-82
2021/12/17 01:24:59;;;;;;;33.10;17.67;;;-0.20;99.90;;;;;;4921811;29;20073;-83
2021/12/17 01:35:44;;;;;;;12.68;7.18;;;-0.20;99.90;;;;;;4920363;29;20020;-83
2021/12/17 01:39:16;;;;;;;16.17;9.23;;;-0.20;99.90;;;;;;4920841;29;20100;-83
2021/12/17 01:41:39;;;;;;;20.00;9.82;;;-0.20;99.90;;;;;;4921296;29;20040;-82
2021/12/17 01:44:03;;;;;;;17.40;8.82;;;-0.20;99.90;;;;;;4921374;29;20013;-83
2021/12/17 01:46:32;;;;;;;19.45;9.70;;;0.00;99.90;;;;;;4920733;29;20020;-85
2021/12/17 01:49:17;;;;;;;15.23;8.25;;;0.10;99.90;;;;;;4923987;29;20156;-83
2021/12/17 02:00:02;;;;;;;15.95;9.30;;;0.30;99.90;;;;;;4960876;29;20023;-84
2021/12/17 02:02:31;;;;;;;15.60;8.77;;;0.30;99.90;;;;;;4944137;29;20052;-84
2021/12/17 02:04:57;;;;;;;17.08;9.45;;;0.20;99.90;;;;;;4960724;28;20024;-84
2021/12/17 02:07:23;;;;;;;;;;;0.30;99.90;;;;;;4961573;28;20028;-84
2021/12/17 02:20:47;;;;;;;16.95;10.35;;;0.20;99.90;;;;;;4960465;29;20019;-85
2021/12/17 02:28:58;;;;;;;18.08;9.98;;;0.10;99.90;;;;;;4960190;29;20043;-86
2021/12/17 02:31:30;;;;;;;14.48;8.60;;;0.00;99.90;;;;;;4960291;28;20027;-85
2021/12/17 02:34:12;;;;;;;10.77;6.20;;;0.10;99.90;;;;;;4957195;29;20035;-83
2021/12/17 02:36:46;;;;;;;7.97;4.47;;;0.10;99.90;;;;;;4960463;29;20032;-85
2021/12/17 02:47:42;;;;;;;7.72;4.30;;;0.90;99.90;;;;;;4958334;29;20209;-82
2021/12/17 02:50:09;;;;;;;;;;;1.10;99.90;;;;;;4942741;28;20031;-84
2021/12/17 02:52:37;;;;;;;10.60;3.70;;;1.20;99.90;;;;;;4943261;29;19911;-84
2021/12/17 02:55:07;;;;;;;8.80;4.38;;;1.30;99.90;;;;;;4959334;29;20063;-84
2021/12/17 02:57:34;;;;;;;8.52;4.47;;;1.30;99.90;;;;;;4959452;29;20028;-84
2021/12/17 03:00:04;;;;;;;8.15;4.70;;;1.30;99.90;;;;;;4959590;28;20039;-85
2021/12/17 03:02:33;;;;;;;8.73;4.40;;;1.30;99.90;;;;;;4958988;29;20095;-83
2021/12/17 03:04:59;;;;;;;9.68;5.10;;;1.30;99.90;;;;;;4959178;29;20091;-84
2021/12/17 03:07:24;;;;;;;;;;;1.30;99.90;;;;;;4957652;29;20031;-85
2021/12/17 03:12:34;;;;;;;8.90;4.78;;;1.50;99.90;;;;;;4959696;29;20056;-82
2021/12/17 03:15:10;;;;;;;7.28;3.58;;;1.60;99.90;;;;;;4942814;29;20031;-85
2021/12/17 03:18:13;;;;;;;11.85;5.07;;;1.60;99.90;;;;;;4946753;29;20048;-86
2021/12/17 03:23:39;;;;;;;8.98;4.82;;;1.60;99.90;;;;;;4962908;29;20067;-85
2021/12/17 03:26:07;;;;;;;8.00;4.50;;;1.60;99.90;;;;;;4962552;29;20003;-85
2021/12/17 03:28:34;;;;;;;12.70;7.75;;;1.70;99.90;;;;;;4963100;29;20012;-85
2021/12/17 03:31:01;;;;;;;8.07;4.15;;;1.80;99.90;;;;;;4945890;29;20036;-85
2021/12/17 03:33:27;;;;;;;10.10;4.25;;;2.00;99.90;;;;;;4962816;29;20500;-84
2021/12/17 03:35:54;;;;;;;9.25;5.03;;;2.10;99.90;;;;;;4946536;28;20023;-85
2021/12/17 03:38:20;;;;;;;8.85;4.47;;;1.90;99.90;;;;;;4946695;29;20075;-84
2021/12/17 03:40:47;;;;;;;8.15;3.88;;;1.90;99.90;;;;;;4962991;28;20016;-85
2021/12/17 03:43:21;;;;;;;9.18;4.18;;;1.90;99.90;;;;;;4946991;29;20042;-84
2021/12/17 03:45:47;;;;;;;5.68;2.55;;;2.10;99.90;;;;;;4946765;29;20076;-85
2021/12/17 03:48:14;;;;;;;5.65;2.70;;;2.40;99.90;;;;;;4946763;28;20039;-85
2021/12/17 03:50:39;;;;;;;5.82;2.33;;;2.40;99.90;;;;;;4963101;29;20239;-84
2021/12/17 03:53:05;;;;;;;;;;;2.40;99.90;;;;;;4963278;29;20020;-85
2021/12/17 03:55:32;;;;;;;6.88;3.53;;;2.30;99.90;;;;;;4945586;29;19903;-85
2021/12/17 03:58:00;;;;;;;;;;;2.30;99.90;;;;;;4947008;29;20059;-84
2021/12/17 04:00:28;;;;;;;5.97;2.63;;;2.10;99.90;;;;;;4946467;29;19926;-85
2021/12/17 04:02:54;;;;;;;4.72;2.50;;;2.00;99.90;;;;;;4963057;28;20075;-84
2021/12/17 04:05:21;;;;;;;;;;;1.70;99.90;;;;;;4946637;29;20020;-84
2021/12/17 04:07:46;;;;;;;11.93;5.55;;;1.60;99.90;;;;;;4962850;28;19910;-84
2021/12/17 04:10:12;;;;;;;;;;;1.50;99.90;;;;;;4963281;29;20075;-83
2021/12/17 04:12:53;;;;;;;7.57;3.85;;;1.30;99.90;;;;;;4945817;29;19911;-85
2021/12/17 04:15:29;;;;;;;19.15;9.48;;;1.10;99.90;;;;;;4961784;29;20016;-85
2021/12/17 04:17:57;;;;;;;53.28;30.58;;;1.00;99.90;;;;;;4961811;29;20014;-85
2021/12/17 04:20:23;;;;;;;57.13;34.03;;;1.00;99.90;;;;;;4945588;29;20028;-84
2021/12/17 04:22:49;;;;;;;;;;;0.90;99.90;;;;;;4962934;28;20012;-84
2021/12/17 04:25:15;;;;;;;19.45;10.73;;;1.00;99.90;;;;;;4945868;29;19970;-84
2021/12/17 04:27:41;;;;;;;19.33;9.38;;;1.20;99.90;;;;;;4961240;29;20020;-85
2021/12/17 04:30:07;;;;;;;;;;;1.50;99.90;;;;;;4961752;29;20016;-84
2021/12/17 04:32:33;;;;;;;24.90;12.82;;;1.60;99.90;;;;;;4961473;29;19918;-84
2021/12/17 04:34:58;;;;;;;;;;;1.70;99.90;;;;;;4944579;29;20028;-85
2021/12/17 04:37:24;;;;;;;18.88;9.90;;;1.80;99.90;;;;;;4962054;28;19915;-84
2021/12/17 04:39:51;;;;;;;;;;;1.80;99.90;;;;;;4962995;28;20076;-84
2021/12/17 04:42:36;;;;;;;15.88;8.40;;;1.90;99.90;;;;;;4945180;29;19902;-82
2021/12/17 04:45:03;;;;;;;11.20;5.38;;;1.80;99.90;;;;;;4945140;29;20040;-85
2021/12/17 04:58:28;;;;;;;10.50;5.95;;;1.50;99.90;;;;;;4961579;29;20047;-85
2021/12/17 05:00:55;;;;;;;13.88;7.72;;;1.50;99.90;;;;;;4960787;29;20023;-85
2021/12/17 05:03:21;;;;;;;11.77;5.28;;;1.40;99.90;;;;;;4961684;28;20038;-83
2021/12/17 05:05:47;;;;;;;15.82;8.15;;;1.40;99.90;;;;;;4962079;29;20020;-84
2021/12/17 05:08:16;;;;;;;;;;;1.60;99.90;;;;;;4962052;29;20016;-84
2021/12/17 05:19:14;;;;;;;32.90;19.67;;;1.40;99.90;;;;;;4961948;29;20035;-84
2021/12/17 05:21:34;;;;;;;33.13;19.45;;;1.40;99.90;;;;;;4961095;28;20012;-84
2021/12/17 05:24:00;;;;;;;;;;;1.30;99.90;;;;;;4945455;29;20043;-84
2021/12/17 05:26:26;;;;;;;39.97;22.92;;;1.20;99.90;;;;;;4961398;28;19922;-84
2021/12/17 05:28:52;;;;;;;;;;;1.20;99.90;;;;;;4960986;29;20028;-84
2021/12/17 05:31:21;;;;;;;52.03;24.37;;;1.10;99.90;;;;;;4961037;29;19911;-83
2021/12/17 05:33:48;;;;;;;49.88;27.90;;;1.00;99.90;;;;;;4961290;29;20048;-83
2021/12/17 05:36:15;;;;;;;46.85;26.08;;;1.00;99.90;;;;;;4961052;28;20035;-84
2021/12/17 05:38:41;;;;;;;38.25;22.00;;;0.90;99.90;;;;;;4959550;28;20031;-85
2021/12/17 05:41:06;;;;;;;;;;;0.80;99.90;;;;;;4958256;29;20027;-84
2021/12/17 05:43:36;;;;;;;40.75;22.73;;;0.70;99.90;;;;;;4941977;29;19966;-84
2021/12/17 05:46:09;;;;;;;41.72;23.55;;;0.60;99.90;;;;;;4941782;29;20015;-83
2021/12/17 05:48:36;;;;;;;45.40;24.05;;;0.50;99.90;;;;;;4942384;29;20079;-83
2021/12/17 05:51:06;;;;;;;41.08;23.73;;;0.60;99.90;;;;;;4958288;29;20052;-83
2021/12/17 05:53:32;;;;;;;40.30;23.25;;;0.60;99.90;;;;;;4941803;29;20027;-84
2021/12/17 05:55:58;;;;;;;40.75;24.42;;;0.50;99.90;;;;;;4941557;29;20036;-85
2021/12/17 05:58:25;;;;;;;;;;;0.50;99.90;;;;;;4959214;29;20095;-84
2021/12/17 06:00:51;;;;;;;40.97;23.92;;;0.50;99.90;;;;;;4944465;29;19913;-85
2021/12/17 06:03:20;;;;;;;47.80;25.15;;;0.50;99.90;;;;;;4960706;28;20035;-84
2021/12/17 06:05:46;;;;;;;54.30;29.08;;;0.50;99.90;;;;;;4944446;29;20035;-84
2021/12/17 06:08:12;;;;;;;50.30;30.05;;;0.40;99.90;;;;;;4960728;29;20028;-84
2021/12/17 06:10:38;;;;;;;;;;;0.30;99.90;;;;;;4960585;29;20031;-84
2021/12/17 06:13:04;;;;;;;47.47;26.75;;;0.30;99.90;;;;;;4960241;29;19942;-84
2021/12/17 06:15:31;;;;;;;39.13;22.73;;;0.20;99.90;;;;;;4943171;29;20088;-83
2021/12/17 06:17:56;;;;;;;35.03;18.98;;;0.20;99.90;;;;;;4960601;29;20032;-84
2021/12/17 06:20:24;;;;;;;;;;;0.30;99.90;;;;;;4943865;29;20019;-84
2021/12/17 06:22:50;;;;;;;34.75;19.00;;;0.40;99.90;;;;;;4960094;29;19895;-84
2021/12/17 06:25:17;;;;;;;32.78;18.30;;;0.40;99.90;;;;;;4943623;29;20048;-83
2021/12/17 06:27:44;;;;;;;63.05;31.80;;;0.40;99.90;;;;;;4958361;29;20047;-84
2021/12/17 06:30:13;;;;;;;64.32;35.20;;;0.30;99.90;;;;;;4957517;29;20042;-84
2021/12/17 06:32:39;;;;;;;58.67;31.33;;;0.30;99.90;;;;;;4959600;28;20027;-84
2021/12/17 06:35:06;;;;;;;31.70;18.15;;;0.30;99.90;;;;;;4960284;29;20028;-83
2021/12/17 06:37:33;;;;;;;30.35;17.08;;;0.20;99.90;;;;;;4959368;29;20032;-85
2021/12/17 06:39:59;;;;;;;51.60;27.40;;;0.20;99.90;;;;;;4959865;28;20087;-84
2021/12/17 06:42:28;;;;;;;;;;;0.20;99.90;;;;;;4959453;29;20039;-84
2021/12/17 06:44:58;;;;;;;50.33;25.83;;;0.20;99.90;;;;;;4959504;29;19918;-84
2021/12/17 06:47:35;;;;;;;49.50;24.65;;;0.20;99.90;;;;;;4958037;29;20016;-83
2021/12/17 06:58:41;;;;;;;13.57;7.25;;;0.60;99.90;;;;;;4963327;28;20088;-84
2021/12/17 07:06:44;;;;;;;11.40;6.78;;;1.10;99.90;;;;;;4963562;29;20027;-85
2021/12/17 07:17:15;;;;;;;12.38;7.05;;;1.30;99.90;;;;;;4962966;29;20039;-85
2021/12/17 07:33:12;;;;;;;16.63;10.38;;;2.50;99.90;;;;;;4962652;29;20035;-84
2021/12/17 07:38:50;;;;;;;;;;;2.80;99.90;;;;;;4962547;29;20034;-85
2021/12/17 07:40:52;;;;;;;19.55;10.55;;;2.90;99.90;;;;;;4946094;29;19906;-84
2021/12/17 07:43:40;;;;;;;22.70;12.52;;;3.20;99.90;;;;;;4963314;28;20035;-82
2021/12/17 07:46:13;;;;;;;22.23;13.32;;;3.50;99.90;;;;;;4962612;29;20043;-84
2021/12/17 07:48:39;;;;;;;15.02;9.32;;;3.90;99.90;;;;;;4963200;28;20016;-83
2021/12/17 07:51:09;;;;;;;17.25;6.38;;;4.20;99.90;;;;;;4963908;28;20047;-85
2021/12/17 07:53:35;;;;;;;9.65;5.28;;;4.50;99.90;;;;;;4963649;29;20008;-85
2021/12/17 07:56:02;;;;;;;;;;;4.80;99.90;;;;;;4963871;28;20038;-82
2021/12/17 07:58:30;;;;;;;8.23;5.05;;;5.10;99.90;;;;;;4947380;29;19933;-85
2021/12/17 08:00:56;;;;;;;7.30;4.65;;;5.30;99.90;;;;;;4947491;29;20012;-83
2021/12/17 08:03:22;;;;;;;10.18;5.53;;;5.60;99.90;;;;;;4962926;28;20016;-82
2021/12/17 08:05:49;;;;;;;9.00;5.28;;;5.70;99.90;;;;;;4964055;28;20028;-84
2021/12/17 08:08:16;;;;;;;15.07;10.95;;;5.90;99.90;;;;;;4963934;28;20031;-77
2021/12/17 08:10:41;;;;;;;19.85;12.57;;;6.30;99.90;;;;;;4963824;28;20016;-85
2021/12/17 08:13:13;;;;;;;;;;;6.50;99.90;;;;;;4964293;28;20027;-81
2021/12/17 08:15:47;;;;;;;15.27;8.18;;;6.70;99.90;;;;;;4963745;28;19902;-81
2021/12/17 08:18:29;;;;;;;21.30;11.82;;;7.00;99.90;;;;;;4947496;28;20029;-82
2021/12/17 08:26:23;;;;;;;91.53;47.25;;;7.50;99.90;;;;;;4963451;28;20020;-76
2021/12/17 08:28:56;;;;;;;52.30;25.92;;;7.40;99.90;;;;;;4947308;28;20011;-79
2021/12/17 12:51:41;;;;;;;6.75;2.67;;;7.90;94.50;;;;;;5329921;23;20131;-80
2021/12/17 12:54:07;;;;;;;;;;;7.70;94.30;;;;;;4966172;28;20015;-75
2021/12/17 12:56:33;;;;;;;6.53;2.40;;;7.70;95.30;;;;;;4965875;28;19915;-77
2021/12/17 12:58:59;;;;;;;;;;;7.80;95.90;;;;;;4966354;28;20035;-76
2021/12/17 13:01:25;;;;;;;4.68;2.03;;;7.80;95.70;;;;;;4982335;28;19894;-77
2021/12/17 13:03:51;;;;;;;;;;;7.70;96.10;;;;;;4965371;28;20043;-82
2021/12/17 13:06:22;;;;;;;7.15;2.00;;;7.70;95.50;;;;;;4982309;28;19894;-78
2021/12/17 13:08:59;;;;;;;7.75;1.60;;;7.70;96.00;;;;;;4965765;28;20008;-82
2021/12/17 13:11:26;;;;;;;5.03;1.42;;;7.60;95.60;;;;;;4965465;28;20091;-79
2021/12/17 13:13:54;;;;;;;5.97;2.30;;;7.60;95.70;;;;;;4965567;28;20080;-81
2021/12/17 13:22:13;;;;;;;7.20;2.13;;;7.70;93.40;;;;;;4982132;28;20022;-81
2021/12/17 13:24:39;;;;;;;4.68;1.60;;;7.70;94.10;;;;;;4981945;28;20003;-81
2021/12/17 13:27:09;;;;;;;;;;;7.60;94.00;;;;;;4982081;28;20050;-76
2021/12/17 13:29:38;;;;;;;6.03;1.88;;;7.70;94.50;;;;;;4963733;28;19895;-75
2021/12/17 13:32:05;;;;;;;6.93;1.65;;;7.60;94.00;;;;;;4962606;28;20072;-79
2021/12/17 13:34:35;;;;;;;8.50;2.15;;;7.70;93.90;;;;;;4946121;28;20022;-81
2021/12/17 13:37:08;;;;;;;4.60;1.60;;;7.70;93.90;;;;;;4962497;28;20044;-76
2021/12/17 13:39:49;;;;;;;7.47;2.17;;;7.60;93.90;;;;;;4962415;28;20012;-80
2021/12/17 13:42:33;;;;;;;9.32;2.63;;;7.60;94.10;;;;;;4962116;28;20016;-78
2021/12/17 13:45:02;;;;;;;7.75;1.60;;;7.70;94.10;;;;;;4962133;28;20024;-79
2021/12/17 13:47:45;;;;;;;5.90;2.00;;;7.70;94.00;;;;;;4962146;28;20073;-79
2021/12/17 13:50:13;;;;;;;6.85;1.77;;;7.60;94.50;;;;;;4961477;28;20012;-78
2021/12/17 14:36:41;;;;;;;8.25;1.92;;;6.70;90.60;;;;;;5284159;23;20078;-77
2021/12/17 14:39:10;;;;;;;8.60;2.33;;;6.50;90.90;;;;;;4980650;28;20014;-80
2021/12/17 14:41:53;;;;;;;13.32;5.13;;;6.40;91.70;;;;;;4964178;28;20042;-84
2021/12/17 14:47:02;;;;;;;55.75;23.83;;;6.20;92.90;;;;;;4980767;28;20067;-79
2021/12/17 15:00:55;;;;;;;27.35;14.43;;;5.70;94.90;;;;;;4980728;28;20032;-80
2021/12/17 15:03:28;;;;;;;37.63;17.58;;;5.50;96.10;;;;;;4980727;28;20011;-78
2021/12/17 15:05:58;;;;;;;41.15;21.80;;;5.30;96.90;;;;;;4980718;28;19999;-77
2021/12/17 15:08:25;;;;;;;35.72;17.73;;;5.20;97.60;;;;;;4980654;28;20026;-77
2021/12/17 15:10:52;;;;;;;20.40;10.48;;;5.20;98.20;;;;;;4980612;28;20059;-78
2021/12/17 15:13:18;;;;;;;17.25;9.05;;;5.00;98.50;;;;;;4984194;28;20012;-77
2021/12/17 15:15:44;;;;;;;;;;;4.90;98.60;;;;;;4984569;28;20054;-77
2021/12/17 15:18:17;;;;;;;12.93;6.60;;;4.80;98.80;;;;;;4984269;28;19901;-78
2021/12/17 15:20:48;;;;;;;8.15;4.68;;;4.70;98.90;;;;;;4984370;28;20031;-78
2021/12/17 15:23:16;;;;;;;10.18;5.85;;;4.70;98.80;;;;;;4967810;28;20030;-77
2021/12/17 15:25:43;;;;;;;13.13;5.10;;;4.60;98.30;;;;;;4984206;28;20021;-76
2021/12/17 16:55:54;;;;;;;14.38;5.35;;;2.80;99.90;;;;;;5055122;23;20047;-82
2021/12/17 16:58:26;;;;;;;10.95;4.38;;;2.70;99.90;;;;;;4964578;29;20085;-83
2021/12/17 17:00:52;;;;;;;13.25;3.78;;;2.70;99.90;;;;;;4982076;28;20038;-78
2021/12/17 17:03:18;;;;;;;10.02;3.22;;;2.70;99.90;;;;;;4965800;28;20062;-78
2021/12/17 17:05:44;;;;;;;;;;;2.70;99.90;;;;;;4965461;28;20031;-82
2021/12/17 17:08:12;;;;;;;6.13;2.50;;;2.80;99.90;;;;;;4982105;28;19933;-85
2021/12/17 17:10:38;;;;;;;7.88;3.00;;;2.70;99.90;;;;;;4982012;28;20016;-83
2021/12/17 17:13:04;;;;;;;10.77;3.22;;;2.70;99.90;;;;;;4982173;28;20039;-77
2021/12/17 17:15:34;;;;;;;8.73;3.13;;;2.70;99.90;;;;;;4965579;28;20035;-78
2021/12/17 17:18:10;;;;;;;7.90;3.35;;;2.70;99.90;;;;;;4965359;29;20062;-83
2021/12/17 17:20:36;;;;;;;9.93;4.00;;;2.70;99.90;;;;;;4981322;28;20015;-82
2021/12/17 17:23:02;;;;;;;14.60;4.40;;;2.80;99.90;;;;;;4981853;28;20066;-80
2021/12/17 17:25:29;;;;;;;9.88;3.88;;;2.80;99.90;;;;;;4980290;28;20011;-83
2021/12/17 17:38:07;;;;;;;9.82;4.38;;;2.90;99.90;;;;;;6027520;23;20243;-78
2021/12/17 17:40:35;;;;;;;;;;;3.00;99.90;;;;;;4961754;28;20088;-79
2021/12/17 17:43:09;;;;;;;9.10;4.30;;;3.10;99.90;;;;;;4945956;28;19901;-78
2021/12/17 17:45:37;;;;;;;12.55;4.57;;;3.10;99.90;;;;;;4946038;29;20036;-76
2021/12/17 17:48:06;;;;;;;14.32;4.85;;;3.00;99.90;;;;;;4946068;28;20022;-79
2021/12/17 17:50:37;;;;;;;11.55;5.30;;;3.20;99.90;;;;;;4961383;28;20205;-81
2021/12/17 17:53:05;;;;;;;15.18;6.63;;;3.20;99.90;;;;;;4945566;29;20018;-83
2021/12/17 17:55:31;;;;;;;14.93;6.95;;;3.00;99.90;;;;;;4961344;29;20007;-81
2021/12/17 17:57:57;;;;;;;;;;;3.00;99.90;;;;;;4961752;28;20087;-83
2021/12/17 18:00:24;;;;;;;17.77;6.80;;;2.80;99.90;;;;;;4945707;29;19915;-82
2021/12/17 18:02:50;;;;;;;23.65;9.50;;;2.80;99.90;;;;;;4962091;29;20032;-81
2021/12/17 18:05:17;;;;;;;48.20;24.42;;;2.90;99.90;;;;;;4961892;28;20023;-80
2021/12/17 18:07:48;;;;;;;25.23;10.55;;;2.80;99.90;;;;;;4945434;28;20035;-83
2021/12/17 18:10:16;;;;;;;22.90;11.15;;;2.60;99.90;;;;;;4961275;28;20115;-83
2021/12/17 18:12:53;;;;;;;19.98;9.88;;;2.30;99.90;;;;;;4961808;28;20047;-84
2021/12/17 18:15:22;;;;;;;19.77;10.45;;;2.30;99.90;;;;;;4961330;28;20035;-76
2021/12/17 18:17:48;;;;;;;19.02;9.45;;;2.30;99.90;;;;;;4961832;28;20039;-80
2021/12/17 18:20:15;;;;;;;;;;;2.30;99.90;;;;;;4962022;28;20038;-82
2021/12/17 18:22:42;;;;;;;38.60;19.42;;;2.10;99.90;;;;;;4960531;28;19902;-79
2021/12/17 18:25:08;;;;;;;40.72;21.85;;;2.00;99.90;;;;;;4961159;28;20028;-81
2021/12/17 18:30:15;;;;;;;51.08;26.73;;;1.80;99.90;;;;;;5813235;23;20047;-77
2021/12/17 18:32:42;;;;;;;57.38;31.92;;;1.80;99.90;;;;;;4980252;28;20024;-80
2021/12/17 18:35:10;;;;;;;96.82;50.05;;;1.80;99.90;;;;;;4980306;28;20076;-79
2021/12/17 18:37:36;;;;;;;60.72;33.47;;;1.60;99.90;;;;;;4980031;28;20059;-83
2021/12/17 18:40:07;;;;;;;70.28;35.08;;;1.50;99.90;;;;;;4964027;29;20014;-82
2021/12/17 18:45:18;;;;;;;97.38;41.50;;;1.30;99.90;;;;;;4980935;28;20010;-78
2021/12/17 18:47:44;;;;;;;101.50;45.28;;;1.30;99.90;;;;;;4967335;28;20012;-78
2021/12/17 18:50:10;;;;;;;;;;;1.00;99.90;;;;;;4968601;28;20080;-79
2021/12/17 18:52:35;;;;;;;94.93;43.15;;;1.00;99.90;;;;;;4984787;28;19925;-77
2021/12/17 18:55:01;;;;;;;;;;;0.80;99.90;;;;;;4968469;28;20023;-79
2021/12/17 18:57:30;;;;;;;133.95;58.78;;;1.00;99.90;;;;;;4984509;28;19909;-78
2021/12/17 18:59:56;;;;;;;129.70;54.97;;;0.80;99.90;;;;;;4968016;28;20018;-78
2021/12/17 19:02:22;;;;;;;;;;;0.70;99.90;;;;;;4968192;29;20027;-81
2021/12/17 19:04:48;;;;;;;120.05;50.08;;;0.80;99.90;;;;;;4979167;29;19907;-80
2021/12/17 19:07:13;;;;;;;;;;;0.90;99.90;;;;;;4981413;28;20031;-82
2021/12/17 19:09:39;;;;;;;51.08;21.80;;;0.90;99.90;;;;;;4984362;28;19902;-80
2021/12/17 19:12:05;;;;;;;;;;;0.90;99.90;;;;;;4984708;28;20044;-78
2021/12/17 19:14:37;;;;;;;39.50;16.80;;;0.80;99.90;;;;;;4967334;28;19906;-82
2021/12/17 19:17:03;;;;;;;35.72;16.08;;;0.80;99.90;;;;;;4984041;28;20042;-80
2021/12/17 19:19:38;;;;;;;35.45;16.73;;;0.80;99.90;;;;;;4984158;28;20015;-78
2021/12/17 19:24:50;;;;;;;43.08;20.23;;;0.60;99.90;;;;;;4983694;28;20038;-81
2021/12/17 19:29:41;;;;;;;134.93;55.55;;;0.40;99.90;;;;;;6050200;23;20647;-81
2021/12/17 19:32:07;;;;;;;;;;;0.30;99.90;;;;;;4980472;28;20043;-81
2021/12/17 19:34:33;;;;;;;137.30;52.53;;;0.40;99.90;;;;;;4977886;29;19958;-80
2021/12/17 19:36:59;;;;;;;136.48;50.35;;;0.20;99.90;;;;;;4957605;29;20138;-82
2021/12/17 19:39:28;;;;;;;;;;;0.30;99.90;;;;;;4967485;28;20011;-79
2021/12/17 19:41:54;;;;;;;130.25;46.67;;;0.10;99.90;;;;;;4982955;28;19910;-81
2021/12/17 19:44:19;;;;;;;;;;;0.00;99.90;;;;;;4966518;28;20022;-82
2021/12/17 19:51:59;;;;;;;92.20;37.67;;;0.00;99.90;;;;;;4980561;28;20031;-81
2021/12/17 19:54:25;;;;;;;76.65;34.58;;;-0.10;99.90;;;;;;4958110;29;20486;-80
2021/12/17 19:56:51;;;;;;;70.55;33.42;;;-0.10;99.90;;;;;;4977109;29;20027;-80
2021/12/17 19:59:17;;;;;;;85.65;38.38;;;-0.20;99.90;;;;;;4978388;28;20019;-81
2021/12/17 20:01:44;;;;;;;74.60;35.58;;;-0.20;99.90;;;;;;4979747;28;20067;-83
2021/12/17 20:04:12;;;;;;;206.40;83.15;;;-0.20;99.90;;;;;;4963516;29;20197;-81
2021/12/17 20:06:45;;;;;;;371.80;144.48;;;-0.40;99.90;;;;;;4980518;29;20027;-82
2021/12/17 20:09:12;;;;;;;272.27;101.65;;;-0.40;99.90;;;;;;4981500;28;20031;-83
2021/12/17 20:11:39;;;;;;;151.15;61.97;;;-0.40;99.90;;;;;;4982550;28;20015;-81
2021/12/17 20:14:06;;;;;;;172.95;72.38;;;-0.50;99.90;;;;;;4983157;28;20023;-79
2021/12/17 20:16:33;;;;;;;814.08;386.15;;;-0.50;99.90;;;;;;4980716;28;20023;-77
2021/12/17 20:18:59;;;;;;;202.98;84.82;;;-0.60;99.90;;;;;;4982435;28;20011;-82
2021/12/17 20:21:24;;;;;;;;;;;-0.70;99.90;;;;;;4966617;28;20021;-84
2021/12/17 20:23:50;;;;;;;66.95;30.83;;;-0.50;99.90;;;;;;4982686;28;19925;-82
2021/12/17 20:34:23;;;;;;;44.17;20.65;;;-0.30;99.90;;;;;;5952904;23;20026;-84
2021/12/17 20:36:49;;;;;;;39.30;19.33;;;-0.30;99.90;;;;;;4981131;28;20106;-81
2021/12/17 20:39:15;;;;;;;;;;;-0.30;99.90;;;;;;4981669;29;20035;-84
2021/12/17 20:41:47;;;;;;;51.10;23.17;;;-0.30;99.90;;;;;;4978843;28;19929;-82
2021/12/17 20:44:15;;;;;;;69.72;30.90;;;-0.30;99.90;;;;;;4979787;29;20031;-84
2021/12/17 20:46:42;;;;;;;50.38;25.58;;;-0.30;99.90;;;;;;4979687;28;20011;-85
2021/12/17 20:49:13;;;;;;;55.03;25.70;;;-0.20;99.90;;;;;;4980101;28;20035;-83
2021/12/17 20:51:39;;;;;;;58.97;26.40;;;-0.20;99.90;;;;;;4962479;29;20046;-81
2021/12/17 20:54:08;;;;;;;74.20;30.05;;;-0.20;99.90;;;;;;4980209;28;20004;-82
2021/12/17 20:56:34;;;;;;;85.40;32.33;;;-0.10;99.90;;;;;;4963924;28;20054;-81
2021/12/17 20:59:01;;;;;;;83.55;29.08;;;-0.10;99.90;;;;;;4965786;28;20051;-82
2021/12/17 21:01:28;;;;;;;103.78;37.33;;;-0.10;99.90;;;;;;4965655;28;20022;-82
2021/12/17 21:03:54;;;;;;;106.13;37.53;;;-0.10;99.90;;;;;;4982148;28;20027;-82
2021/12/17 21:06:20;;;;;;;84.97;30.48;;;-0.10;99.90;;;;;;4965410;28;20023;-83
2021/12/17 21:08:51;;;;;;;74.05;27.33;;;-0.10;99.90;;;;;;4965199;28;20051;-84
2021/12/17 21:11:17;;;;;;;77.75;33.63;;;-0.10;99.90;;;;;;4981488;28;20014;-83
2021/12/17 21:13:57;;;;;;;;;;;0.00;99.90;;;;;;4982335;28;20083;-82
2021/12/17 21:16:23;;;;;;;58.08;23.83;;;0.00;99.90;;;;;;4981653;28;19989;-83
2021/12/17 21:18:49;;;;;;;;;;;0.00;99.90;;;;;;4965854;28;20031;-80
2021/12/17 21:21:17;;;;;;;34.53;15.23;;;0.10;99.90;;;;;;4980989;28;19915;-82
2021/12/17 21:23:43;;;;;;;35.85;15.48;;;0.20;99.90;;;;;;4981182;28;20032;-84
2021/12/17 21:36:31;;;;;;;28.58;14.07;;;0.30;99.90;;;;;;5772620;23;20032;-85
2021/12/17 21:38:57;;;;;;;37.10;19.17;;;0.20;99.90;;;;;;4958140;29;20085;-81
2021/12/17 21:41:23;;;;;;;;;;;0.00;99.90;;;;;;4942328;29;20043;-81
2021/12/17 21:43:50;;;;;;;29.85;13.18;;;0.00;99.90;;;;;;4958153;29;19914;-81
2021/12/17 21:46:17;;;;;;;45.03;24.45;;;-0.10;99.90;;;;;;4960023;29;20012;-83
2021/12/17 21:48:44;;;;;;;31.48;16.42;;;-0.20;99.90;;;;;;4960593;29;20036;-84
2021/12/17 21:51:10;;;;;;;28.50;14.85;;;-0.30;99.90;;;;;;4943728;29;20047;-82
2021/12/17 21:53:37;;;;;;;29.48;14.40;;;-0.30;99.90;;;;;;4959876;28;20040;-82
2021/12/17 21:56:06;;;;;;;31.10;14.10;;;-0.20;99.90;;;;;;4959665;29;20027;-83
2021/12/17 21:58:32;;;;;;;24.63;13.50;;;-0.30;99.90;;;;;;4958084;29;20227;-82
2021/12/17 22:00:57;;;;;;;;;;;-0.30;99.90;;;;;;4961060;28;20032;-82
2021/12/17 22:03:29;;;;;;;21.45;11.15;;;-0.30;99.90;;;;;;4945596;29;19958;-83
2021/12/17 22:05:57;;;;;;;21.95;11.27;;;-0.20;99.90;;;;;;4945427;28;20032;-77
2021/12/17 22:08:26;;;;;;;27.00;11.20;;;-0.20;99.90;;;;;;4961034;28;20028;-81
2021/12/17 22:10:54;;;;;;;21.98;10.88;;;-0.30;99.90;;;;;;4945354;28;20039;-81
2021/12/17 22:13:20;;;;;;;21.88;10.27;;;-0.30;99.90;;;;;;4961105;28;20034;-81
2021/12/17 22:15:46;;;;;;;;;;;-0.30;99.90;;;;;;4961185;29;20020;-83
2021/12/17 22:18:15;;;;;;;21.80;10.07;;;-0.30;99.90;;;;;;4955816;28;19915;-79
2021/12/17 22:23:08;;;;;;;;;;;-0.30;99.90;;;;;;4961705;28;20031;-80
2021/12/17 22:28:34;;;;;;;29.83;14.00;;;-0.30;99.90;;;;;;5292601;23;20050;-83
2021/12/17 22:30:59;;;;;;;;;;;-0.20;99.90;;;;;;4981117;28;20015;-82
2021/12/17 22:33:25;;;;;;;24.77;10.60;;;-0.30;99.90;;;;;;4980727;28;19895;-82
2021/12/17 22:35:51;;;;;;;;;;;-0.20;99.90;;;;;;4963614;29;20029;-81
2021/12/17 22:38:17;;;;;;;31.92;11.38;;;-0.10;99.90;;;;;;4980194;28;19894;-81
2021/12/17 22:41:20;;;;;;;;;;;-0.10;99.90;;;;;;4981021;28;20075;-83
2021/12/17 22:43:47;;;;;;;32.47;13.05;;;-0.10;99.90;;;;;;4979836;28;19895;-79
2021/12/17 22:46:15;;;;;;;42.58;17.05;;;0.00;99.90;;;;;;4963813;28;20043;-83
2021/12/17 22:48:42;;;;;;;37.10;15.68;;;0.00;99.90;;;;;;4963276;28;20023;-83
2021/12/17 22:51:09;;;;;;;32.80;12.10;;;0.20;99.90;;;;;;4979114;28;20059;-83
2021/12/17 22:53:36;;;;;;;27.75;12.82;;;0.10;99.90;;;;;;4979803;28;20027;-84
2021/12/17 22:56:02;;;;;;;20.65;9.77;;;0.20;99.90;;;;;;4980381;28;20024;-85
2021/12/17 22:58:31;;;;;;;21.30;10.45;;;0.30;99.90;;;;;;4963881;29;20039;-85
2021/12/17 23:01:13;;;;;;;34.50;14.40;;;0.30;99.90;;;;;;4962906;29;20023;-84
2021/12/17 23:09:29;;;;;;;28.13;13.50;;;0.50;99.90;;;;;;4979422;28;20017;-84
2021/12/17 23:12:01;;;;;;;29.83;14.38;;;0.50;99.90;;;;;;4978665;28;20095;-82
2021/12/17 23:14:44;;;;;;;24.77;11.13;;;0.50;99.90;;;;;;4977399;28;20050;-84
2021/12/17 23:17:12;;;;;;;26.38;12.30;;;0.60;99.90;;;;;;4979242;28;20036;-83
2021/12/17 23:19:40;;;;;;;30.55;13.40;;;0.50;99.90;;;;;;4960690;29;20046;-82